createdAt,value
2017-09-19T00:01:15.685Z,15.97
2017-09-19T00:03:43.990Z,14.30
2017-09-19T00:06:13.230Z,16.27
2017-09-19T00:08:42.070Z,17.10
2017-09-19T00:11:11.109Z,16.47
2017-09-19T00:13:39.488Z,14.47
2017-09-19T00:16:07.799Z,14.40
2017-09-19T00:18:36.924Z,15.63
2017-09-19T00:21:05.517Z,16.50
2017-09-19T00:23:33.794Z,16.30
2017-09-19T00:26:02.072Z,15.10
2017-09-19T00:28:30.678Z,18.80
2017-09-19T00:30:58.989Z,18.03
2017-09-19T00:33:27.277Z,16.10
2017-09-19T00:35:55.981Z,16.93
2017-09-19T00:38:24.297Z,17.97
2017-09-19T00:40:52.888Z,16.53
2017-09-19T00:43:21.604Z,19.33
2017-09-19T00:45:51.840Z,20.33
2017-09-19T00:48:21.007Z,18.87
2017-09-19T00:50:49.593Z,17.87
2017-09-19T00:53:18.241Z,15.07
2017-09-19T00:55:47.331Z,16.83
2017-09-19T00:58:15.684Z,18.50
2017-09-19T01:00:44.758Z,16.97
2017-09-19T01:03:13.117Z,17.90
2017-09-19T01:05:41.518Z,17.50
2017-09-19T01:08:09.963Z,16.47
2017-09-19T01:10:39.024Z,15.30
2017-09-19T01:13:08.832Z,18.20
2017-09-19T01:15:37.793Z,16.27
2017-09-19T01:18:06.165Z,16.20
2017-09-19T01:20:35.287Z,18.00
2017-09-19T01:23:03.589Z,15.27
2017-09-19T01:25:31.897Z,14.90
2017-09-19T01:28:00.186Z,19.50
2017-09-19T01:30:28.500Z,19.13
2017-09-19T01:32:56.821Z,18.17
2017-09-19T01:35:25.329Z,18.90
2017-09-19T01:37:54.458Z,18.57
2017-09-19T01:40:22.767Z,18.23
2017-09-19T01:42:51.060Z,16.97
2017-09-19T01:45:19.876Z,18.00
2017-09-19T01:47:48.974Z,19.00
2017-09-19T01:50:17.266Z,21.20
2017-09-19T01:52:45.592Z,21.20
2017-09-19T01:55:14.549Z,19.00
2017-09-19T01:57:43.495Z,22.43
2017-09-19T02:00:11.790Z,20.00
2017-09-19T02:02:40.115Z,25.20
2017-09-19T02:05:11.515Z,17.53
2017-09-19T02:07:39.837Z,18.90
2017-09-19T02:10:08.188Z,19.67
2017-09-19T02:12:36.511Z,18.30
2017-09-19T02:15:04.821Z,18.27
2017-09-19T02:17:33.936Z,19.60
2017-09-19T02:20:02.502Z,18.87
2017-09-19T02:29:18.760Z,16.50
2017-09-19T02:31:47.048Z,17.23
2017-09-19T02:34:15.403Z,18.03
2017-09-19T02:36:43.687Z,17.80
2017-09-19T02:39:11.996Z,16.33
2017-09-19T02:41:40.601Z,15.83
2017-09-19T02:44:08.886Z,17.77
2017-09-19T02:46:38.704Z,18.90
2017-09-19T02:49:07.771Z,17.73
2017-09-19T02:51:37.582Z,17.60
2017-09-19T02:54:07.430Z,18.40
2017-09-19T02:56:36.466Z,18.57
2017-09-19T02:59:04.782Z,16.50
2017-09-19T03:01:33.138Z,13.60
2017-09-19T03:04:01.422Z,16.83
2017-09-19T03:06:30.572Z,16.37
2017-09-19T03:08:58.862Z,20.07
2017-09-19T03:11:27.184Z,17.73
2017-09-19T03:13:55.479Z,21.10
2017-09-19T03:16:23.770Z,20.70
2017-09-19T03:18:52.085Z,22.53
2017-09-19T03:21:21.139Z,19.63
2017-09-19T03:23:51.085Z,18.53
2017-09-19T03:26:19.375Z,20.90
2017-09-19T03:28:47.720Z,17.37
2017-09-19T03:31:16.019Z,18.50
2017-09-19T03:33:44.324Z,17.33
2017-09-19T03:36:13.456Z,15.60
2017-09-19T03:38:41.753Z,16.30
2017-09-19T03:41:10.103Z,16.40
2017-09-19T03:43:39.165Z,17.10
2017-09-19T03:46:08.060Z,15.23
2017-09-19T03:48:36.358Z,16.07
2017-09-19T03:51:07.853Z,14.07
2017-09-19T03:53:36.417Z,14.37
2017-09-19T03:56:05.587Z,14.77
2017-09-19T03:58:34.163Z,14.23
2017-09-19T04:01:02.457Z,17.60
2017-09-19T04:03:32.247Z,18.67
2017-09-19T04:06:00.566Z,15.80
2017-09-19T04:08:28.890Z,19.30
2017-09-19T04:10:57.193Z,14.30
2017-09-19T04:13:25.511Z,13.70
2017-09-19T04:15:53.815Z,16.17
2017-09-19T04:18:22.916Z,16.40
2017-09-19T04:20:52.008Z,15.43
2017-09-19T04:23:20.290Z,21.63
2017-09-19T04:25:49.378Z,16.40
2017-09-19T04:28:17.668Z,16.63
2017-09-19T04:30:46.026Z,15.20
2017-09-19T04:33:14.316Z,17.43
2017-09-19T04:35:42.607Z,20.13
2017-09-19T04:38:10.959Z,18.23
2017-09-19T04:40:39.298Z,20.23
2017-09-19T04:43:08.371Z,17.17
2017-09-19T04:45:37.430Z,16.20
2017-09-19T04:48:05.727Z,16.87
2017-09-19T04:50:34.018Z,16.77
2017-09-19T04:53:02.376Z,18.57
2017-09-19T04:55:30.674Z,15.67
2017-09-19T04:57:58.994Z,15.90
2017-09-19T05:00:27.302Z,20.00
2017-09-19T05:02:55.613Z,18.13
2017-09-19T05:05:23.948Z,18.83
2017-09-19T05:07:52.995Z,26.80
2017-09-19T05:10:21.375Z,23.20
2017-09-19T05:12:49.661Z,21.17
2017-09-19T05:15:17.975Z,19.07
2017-09-19T05:17:46.375Z,20.80
2017-09-19T05:20:15.455Z,24.10
2017-09-19T05:22:43.772Z,21.07
2017-09-19T05:25:12.423Z,24.40
2017-09-19T05:27:40.711Z,24.43
2017-09-19T05:30:09.772Z,27.30
2017-09-19T05:32:38.094Z,30.33
2017-09-19T05:35:06.369Z,23.20
2017-09-19T05:37:34.707Z,24.30
2017-09-19T05:40:03.012Z,24.43
2017-09-19T05:42:31.621Z,32.47
2017-09-19T05:45:01.046Z,25.30
2017-09-19T05:47:30.127Z,22.87
2017-09-19T05:49:58.411Z,23.47
2017-09-19T05:52:27.026Z,26.10
2017-09-19T05:54:56.090Z,25.30
2017-09-19T05:57:24.456Z,26.47
2017-09-19T05:59:52.796Z,19.13
2017-09-19T06:02:21.869Z,20.70
2017-09-19T06:04:52.376Z,20.50
2017-09-19T06:07:20.687Z,26.53
2017-09-19T06:09:49.937Z,18.10
2017-09-19T06:12:19.095Z,24.13
2017-09-19T06:14:48.151Z,21.23
2017-09-19T06:17:16.428Z,20.93
2017-09-19T06:19:45.095Z,18.73
2017-09-19T06:22:13.391Z,18.67
2017-09-19T06:24:41.721Z,23.73
2017-09-19T06:27:10.383Z,17.23
2017-09-19T06:29:38.667Z,18.57
2017-09-19T06:32:07.391Z,18.23
2017-09-19T06:34:36.450Z,18.97
2017-09-19T06:37:04.752Z,18.73
2017-09-19T06:39:34.207Z,18.90
2017-09-19T06:42:02.509Z,15.93
2017-09-19T06:44:31.526Z,19.57
2017-09-19T06:46:59.865Z,15.60
2017-09-19T06:49:30.779Z,16.60
2017-09-19T06:51:59.277Z,22.87
2017-09-19T06:54:27.600Z,21.30
2017-09-19T06:56:55.879Z,18.00
2017-09-19T06:59:24.628Z,17.97
2017-09-19T07:01:53.702Z,19.50
2017-09-19T07:04:22.015Z,18.40
2017-09-19T07:06:51.202Z,17.90
2017-09-19T07:09:20.288Z,16.30
2017-09-19T07:11:50.253Z,17.00
2017-09-19T07:14:20.114Z,17.63
2017-09-19T07:16:49.947Z,18.57
2017-09-19T07:19:19.795Z,19.77
2017-09-19T07:21:49.641Z,21.00
2017-09-19T07:24:19.452Z,27.80
2017-09-19T07:26:50.182Z,19.03
2017-09-19T07:29:20.396Z,21.57
2017-09-19T07:31:50.498Z,20.23
2017-09-19T07:34:20.326Z,18.03
2017-09-19T07:36:50.158Z,26.10
2017-09-19T07:39:20.032Z,18.70
2017-09-19T07:41:49.920Z,17.27
2017-09-19T07:44:19.767Z,16.53
2017-09-19T07:46:50.516Z,19.20
2017-09-19T07:49:20.336Z,19.00
2017-09-19T07:51:50.185Z,16.03
2017-09-19T07:54:20.048Z,17.43
2017-09-19T07:56:49.902Z,14.10
2017-09-19T07:59:20.474Z,15.60
2017-09-19T08:01:50.259Z,15.93
2017-09-19T08:04:20.090Z,16.00
2017-09-19T08:06:49.903Z,20.07
2017-09-19T08:09:19.743Z,14.67
2017-09-19T08:11:49.569Z,13.37
2017-09-19T08:14:19.389Z,19.90
2017-09-19T08:16:49.189Z,14.10
2017-09-19T08:19:19.670Z,18.83
2017-09-19T08:21:49.494Z,16.97
2017-09-19T08:24:19.329Z,15.27
2017-09-19T08:26:49.471Z,12.80
2017-09-19T08:29:19.286Z,15.53
2017-09-19T08:31:49.115Z,14.27
2017-09-19T08:34:18.967Z,14.23
2017-09-19T08:36:48.775Z,15.50
2017-09-19T08:39:18.615Z,14.47
2017-09-19T08:41:48.509Z,11.67
2017-09-19T08:44:18.419Z,12.90
2017-09-19T08:46:48.211Z,15.30
2017-09-19T08:49:18.043Z,12.60
2017-09-19T08:51:47.866Z,11.70
2017-09-19T08:54:18.881Z,10.93
2017-09-19T08:56:48.682Z,9.43
2017-09-19T08:59:18.890Z,6.40
2017-09-19T09:01:49.595Z,8.60
2017-09-19T09:04:19.683Z,8.67
2017-09-19T09:06:49.486Z,7.50
2017-09-19T09:09:19.671Z,6.60
2017-09-19T09:11:49.478Z,6.60
2017-09-19T09:14:19.616Z,7.60
2017-09-19T09:16:49.682Z,6.53
2017-09-19T09:19:20.458Z,13.63
2017-09-19T09:21:50.259Z,9.47
2017-09-19T09:24:20.400Z,8.93
2017-09-19T09:26:50.935Z,8.57
2017-09-19T09:29:21.070Z,7.80
2017-09-19T09:31:50.859Z,7.93
2017-09-19T09:34:20.666Z,9.63
2017-09-19T09:36:50.564Z,8.77
2017-09-19T09:39:20.339Z,8.60
2017-09-19T09:41:50.151Z,13.57
2017-09-19T09:44:20.109Z,9.90
2017-09-19T09:46:49.924Z,9.77
2017-09-19T09:49:19.770Z,10.30
2017-09-19T09:51:51.571Z,8.07
2017-09-19T09:54:22.952Z,7.07
2017-09-19T09:56:53.612Z,8.90
2017-09-19T09:59:23.437Z,9.20
2017-09-19T10:01:53.242Z,7.13
2017-09-19T10:04:23.762Z,7.68
2017-09-19T10:06:53.617Z,11.07
2017-09-19T10:09:23.437Z,6.73
2017-09-19T10:11:53.278Z,6.20
2017-09-19T10:14:23.126Z,7.10
2017-09-19T10:16:52.952Z,7.03
2017-09-19T10:19:22.779Z,5.70
2017-09-19T10:21:52.587Z,6.57
2017-09-19T10:24:22.400Z,5.77
2017-09-19T10:26:52.918Z,9.03
2017-09-19T10:29:22.761Z,4.97
2017-09-19T10:31:52.600Z,5.50
2017-09-19T10:34:22.460Z,6.62
2017-09-19T10:36:52.419Z,4.80
2017-09-19T10:39:20.612Z,4.97
2017-09-19T10:41:48.880Z,4.93
2017-09-19T10:44:17.163Z,6.10
2017-09-19T10:46:45.528Z,4.37
2017-09-19T10:49:14.153Z,5.83
2017-09-19T10:51:42.578Z,5.27
2017-09-19T10:54:11.654Z,4.87
2017-09-19T10:56:40.731Z,9.63
2017-09-19T10:59:10.723Z,6.23
2017-09-19T11:01:40.819Z,7.20
2017-09-19T11:04:09.676Z,5.90
2017-09-19T11:06:37.971Z,4.53
2017-09-19T11:09:06.332Z,5.80
2017-09-19T11:11:34.650Z,4.17
2017-09-19T11:14:03.740Z,4.35
2017-09-19T11:16:32.060Z,4.90
2017-09-19T11:19:00.724Z,4.87
2017-09-19T11:21:30.049Z,4.00
2017-09-19T11:23:59.122Z,3.80
2017-09-19T11:26:27.430Z,4.15
2017-09-19T11:28:57.042Z,4.80
2017-09-19T11:31:26.084Z,4.00
2017-09-19T11:33:56.018Z,4.60
2017-09-19T11:36:25.859Z,4.03
2017-09-19T11:38:55.689Z,3.97
2017-09-19T11:41:25.977Z,3.90
2017-09-19T11:43:55.785Z,4.60
2017-09-19T11:46:25.900Z,4.13
2017-09-19T11:48:55.707Z,5.07
2017-09-19T11:51:26.037Z,4.30
2017-09-19T11:53:56.440Z,4.27
2017-09-19T11:56:26.674Z,4.30
2017-09-19T11:58:56.497Z,3.40
2017-09-19T12:01:25.457Z,4.37
2017-09-19T12:03:54.108Z,4.50
2017-09-19T12:06:22.404Z,5.27
2017-09-19T12:08:50.700Z,6.97
2017-09-19T12:11:20.137Z,5.90
2017-09-19T12:13:49.163Z,3.63
2017-09-19T12:16:18.321Z,4.72
2017-09-19T12:18:47.387Z,5.30
2017-09-19T12:21:16.495Z,3.75
2017-09-19T12:23:45.500Z,4.83
2017-09-19T12:26:13.801Z,4.13
2017-09-19T12:28:42.882Z,4.00
2017-09-19T12:31:14.168Z,3.00
2017-09-19T12:33:44.730Z,4.30
2017-09-19T12:36:13.290Z,2.03
2017-09-19T12:38:41.649Z,2.73
2017-09-19T12:41:12.045Z,3.77
2017-09-19T12:43:40.659Z,5.77
2017-09-19T12:46:09.645Z,12.60
2017-09-19T12:48:37.938Z,4.20
2017-09-19T12:51:06.240Z,3.40
2017-09-19T12:53:36.293Z,2.20
2017-09-19T12:56:04.940Z,5.03
2017-09-19T12:58:34.889Z,2.63
2017-09-19T13:01:05.128Z,2.27
2017-09-19T13:03:34.971Z,2.25
2017-09-19T13:06:04.775Z,2.77
2017-09-19T13:08:34.615Z,5.37
2017-09-19T13:11:04.440Z,2.33
2017-09-19T13:13:34.267Z,1.47
2017-09-19T13:16:04.063Z,1.27
2017-09-19T13:18:33.900Z,3.17
2017-09-19T13:21:02.843Z,4.47
2017-09-19T13:23:31.353Z,1.73
2017-09-19T13:25:59.682Z,3.20
2017-09-19T13:28:28.733Z,1.50
2017-09-19T13:31:09.721Z,2.12
2017-09-19T13:33:44.927Z,2.80
2017-09-19T13:36:14.854Z,3.47
2017-09-19T13:38:44.696Z,2.73
2017-09-19T13:41:14.538Z,2.33
2017-09-19T13:43:44.383Z,3.73
2017-09-19T13:46:12.611Z,2.50
2017-09-19T13:48:41.676Z,1.80
2017-09-19T13:51:09.951Z,2.60
2017-09-19T13:53:38.308Z,2.78
2017-09-19T13:56:07.342Z,3.20
2017-09-19T13:58:35.656Z,2.50
2017-09-19T14:01:03.952Z,4.67
2017-09-19T14:03:33.916Z,2.90
2017-09-19T14:06:04.354Z,1.83
2017-09-19T14:08:32.518Z,4.20
2017-09-19T14:11:00.838Z,1.67
2017-09-19T14:13:29.160Z,1.83
2017-09-19T14:15:59.101Z,5.10
2017-09-19T14:18:28.894Z,4.47
2017-09-19T14:20:58.703Z,2.80
2017-09-19T14:23:26.861Z,4.73
2017-09-19T14:25:55.966Z,5.10
2017-09-19T14:28:25.902Z,4.77
2017-09-19T14:30:55.724Z,3.97
2017-09-19T14:33:25.546Z,3.10
2017-09-19T14:35:55.394Z,5.10
2017-09-19T14:38:23.568Z,3.00
2017-09-19T14:40:51.879Z,2.67
2017-09-19T14:43:21.501Z,2.50
2017-09-19T14:45:50.805Z,3.10
2017-09-19T14:48:19.122Z,2.60
2017-09-19T14:50:47.826Z,2.80
2017-09-19T14:53:16.151Z,3.53
2017-09-19T14:55:44.482Z,3.70
2017-09-19T14:58:13.550Z,2.40
2017-09-19T15:00:41.834Z,3.07
2017-09-19T15:03:10.893Z,2.90
2017-09-19T15:05:39.215Z,2.17
2017-09-19T15:08:08.291Z,4.40
2017-09-19T15:10:36.594Z,2.40
2017-09-19T15:13:06.395Z,4.50
2017-09-19T15:15:34.707Z,2.50
2017-09-19T15:18:03.782Z,4.80
2017-09-19T15:20:32.696Z,3.50
2017-09-19T15:23:01.591Z,3.30
2017-09-19T15:25:29.866Z,5.77
2017-09-19T15:27:58.947Z,3.53
2017-09-19T15:30:27.248Z,3.90
2017-09-19T15:32:55.578Z,4.60
2017-09-19T15:35:23.860Z,9.97
2017-09-19T15:37:52.179Z,14.37
2017-09-19T15:40:20.500Z,4.37
2017-09-19T15:42:48.995Z,3.63
2017-09-19T15:45:18.032Z,3.73
2017-09-19T15:47:46.339Z,3.50
2017-09-19T15:50:16.254Z,4.17
2017-09-19T15:52:48.926Z,3.30
2017-09-19T15:55:17.244Z,2.67
2017-09-19T15:57:46.310Z,5.87
2017-09-19T16:00:14.639Z,5.90
2017-09-19T16:02:45.733Z,3.80
2017-09-19T16:05:15.151Z,4.97
2017-09-19T16:07:45.327Z,5.40
2017-09-19T16:10:13.620Z,4.93
2017-09-19T16:12:42.946Z,3.77
2017-09-19T16:15:11.569Z,3.20
2017-09-19T16:17:40.649Z,4.40
2017-09-19T16:20:08.929Z,3.40
2017-09-19T16:22:37.255Z,4.87
2017-09-19T16:25:05.572Z,3.60
2017-09-19T16:27:34.594Z,3.37
2017-09-19T16:30:03.223Z,3.60
2017-09-19T16:32:32.306Z,5.90
2017-09-19T16:35:01.407Z,2.73
2017-09-19T16:37:30.222Z,4.03
2017-09-19T16:39:58.515Z,4.60
2017-09-19T16:42:26.831Z,4.73
2017-09-19T16:44:55.233Z,3.87
2017-09-19T16:47:23.523Z,5.00
2017-09-19T16:49:52.660Z,4.57
2017-09-19T16:52:20.948Z,3.97
2017-09-19T16:54:49.225Z,4.00
2017-09-19T16:57:18.613Z,4.40
2017-09-19T16:59:46.889Z,4.63
2017-09-19T17:02:15.229Z,8.57
2017-09-19T17:04:43.536Z,4.50
2017-09-19T17:07:12.867Z,5.90
2017-09-19T17:09:41.898Z,4.33
2017-09-19T17:12:10.228Z,4.70
2017-09-19T17:14:39.319Z,7.23
2017-09-19T17:17:08.379Z,5.30
2017-09-19T17:19:36.690Z,6.73
2017-09-19T17:22:05.630Z,5.13
2017-09-19T17:24:34.644Z,7.23
2017-09-19T17:27:02.948Z,6.13
2017-09-19T17:29:31.747Z,6.70
2017-09-19T17:32:00.094Z,10.53
2017-09-19T17:34:28.374Z,7.67
2017-09-19T17:36:56.689Z,7.03
2017-09-19T17:39:25.233Z,6.73
2017-09-19T17:41:54.049Z,8.23
2017-09-19T17:44:22.349Z,6.20
2017-09-19T17:46:51.370Z,7.63
2017-09-19T17:49:20.454Z,6.83
2017-09-19T17:51:48.756Z,8.90
2017-09-19T17:54:17.819Z,8.30
2017-09-19T17:56:46.123Z,7.70
2017-09-19T17:59:16.675Z,11.10
2017-09-19T18:01:46.035Z,8.60
2017-09-19T18:04:14.360Z,8.80
2017-09-19T18:06:42.652Z,10.30
2017-09-19T18:09:11.617Z,9.43
2017-09-19T18:11:39.883Z,9.43
2017-09-19T18:14:08.263Z,9.90
2017-09-19T18:16:36.547Z,8.70
2017-09-19T18:19:05.472Z,9.63
2017-09-19T18:21:33.754Z,8.90
2017-09-19T18:24:02.048Z,9.30
2017-09-19T18:26:31.110Z,13.00
2017-09-19T18:28:59.444Z,10.83
2017-09-19T18:31:28.910Z,9.67
2017-09-19T18:33:57.308Z,9.13
2017-09-19T18:36:25.649Z,11.10
2017-09-19T18:38:53.986Z,10.40
2017-09-19T18:41:22.784Z,9.37
2017-09-19T18:43:51.431Z,12.60
2017-09-19T18:46:20.644Z,11.07
2017-09-19T18:48:48.926Z,10.23
2017-09-19T18:51:17.689Z,10.33
2017-09-19T18:53:46.093Z,9.57
2017-09-19T18:56:14.391Z,11.20
2017-09-19T18:58:43.073Z,10.00
2017-09-19T19:01:11.419Z,10.57
2017-09-19T19:03:39.712Z,10.50
2017-09-19T19:06:09.064Z,11.07
2017-09-19T19:08:37.362Z,13.30
2017-09-19T19:11:06.412Z,11.03
2017-09-19T19:13:35.003Z,11.00
2017-09-19T19:16:03.350Z,14.20
2017-09-19T19:18:31.655Z,10.47
2017-09-19T19:21:00.360Z,15.10
2017-09-19T19:23:28.722Z,11.37
2017-09-19T19:25:57.032Z,11.57
2017-09-19T19:28:25.375Z,10.97
2017-09-19T19:30:53.703Z,12.10
2017-09-19T19:33:21.994Z,12.03
2017-09-19T19:35:50.291Z,12.90
2017-09-19T19:38:18.628Z,14.93
2017-09-19T19:40:47.631Z,15.10
2017-09-19T19:43:15.982Z,12.93
2017-09-19T19:45:45.044Z,11.83
2017-09-19T19:48:13.413Z,13.63
2017-09-19T19:50:41.728Z,13.10
2017-09-19T19:53:10.846Z,11.47
2017-09-19T19:55:39.176Z,15.30
2017-09-19T19:58:07.491Z,15.27
2017-09-19T20:00:37.331Z,16.97
2017-09-19T20:03:06.396Z,13.70
2017-09-19T20:05:34.699Z,17.70
2017-09-19T20:08:03.015Z,13.50
2017-09-19T20:10:31.354Z,14.47
2017-09-19T20:12:59.653Z,15.27
2017-09-19T20:15:27.952Z,15.63
2017-09-19T20:17:56.303Z,16.47
2017-09-19T20:20:25.354Z,14.10
2017-09-19T20:22:53.671Z,16.60
2017-09-19T20:25:22.758Z,15.70
2017-09-19T20:27:51.052Z,18.20
2017-09-19T20:30:20.115Z,15.70
2017-09-19T20:32:48.428Z,15.60
2017-09-19T20:35:17.204Z,16.27
2017-09-19T20:37:45.946Z,14.77
2017-09-19T20:40:14.270Z,17.30
2017-09-19T20:42:42.576Z,15.97
2017-09-19T20:45:11.534Z,16.40
2017-09-19T20:47:39.857Z,19.80
2017-09-19T20:50:08.167Z,16.70
2017-09-19T20:52:37.216Z,17.63
2017-09-19T20:55:05.546Z,17.23
2017-09-19T20:57:33.847Z,20.10
2017-09-19T21:00:02.758Z,17.60
2017-09-19T21:02:31.100Z,16.57
2017-09-19T21:05:05.888Z,17.07
2017-09-19T21:07:40.356Z,15.90
2017-09-19T21:10:15.091Z,17.70
2017-09-19T21:12:49.018Z,22.53
2017-09-19T21:15:23.036Z,16.00
2017-09-19T21:17:57.034Z,18.57
2017-09-19T21:20:27.009Z,19.00
2017-09-19T21:22:55.509Z,17.60
2017-09-19T21:25:24.622Z,18.67
2017-09-19T21:27:53.677Z,18.53
2017-09-19T21:30:23.027Z,17.23
2017-09-19T21:32:52.739Z,17.37
2017-09-19T21:35:21.797Z,20.27
2017-09-19T21:37:50.095Z,17.60
2017-09-19T21:40:18.442Z,17.67
2017-09-19T21:42:46.751Z,19.90
2017-09-19T21:45:15.108Z,18.30
2017-09-19T21:47:43.418Z,20.60
2017-09-19T21:50:11.740Z,22.03
2017-09-19T21:52:40.107Z,19.73
2017-09-19T21:55:08.447Z,17.90
2017-09-19T21:57:36.738Z,19.73
2017-09-19T22:00:05.092Z,21.03
2017-09-19T22:02:33.415Z,18.10
2017-09-19T22:05:01.720Z,19.60
2017-09-19T22:07:31.199Z,20.57
2017-09-19T22:09:59.515Z,20.33
2017-09-19T22:12:28.584Z,20.87
2017-09-19T22:14:57.519Z,22.73
2017-09-19T22:17:26.561Z,17.93
2017-09-19T22:19:55.535Z,17.47
2017-09-19T22:22:23.909Z,19.90
2017-09-19T22:24:52.290Z,18.97
2017-09-19T22:27:21.347Z,23.20
2017-09-19T22:29:49.675Z,18.90
2017-09-19T22:32:18.956Z,22.33
2017-09-19T22:34:48.044Z,19.40
2017-09-19T22:37:16.381Z,20.27
2017-09-19T22:39:44.698Z,19.90
2017-09-19T22:42:13.079Z,21.23
2017-09-19T22:44:41.448Z,22.90
2017-09-19T22:47:09.755Z,18.90
2017-09-19T22:49:38.069Z,25.17
2017-09-19T22:52:06.408Z,25.20
2017-09-19T22:54:35.435Z,21.63
2017-09-19T22:57:04.531Z,24.03
2017-09-19T22:59:33.593Z,19.40
2017-09-19T23:02:01.951Z,23.47
2017-09-19T23:04:30.246Z,19.23
2017-09-19T23:06:59.037Z,23.93
2017-09-19T23:09:27.346Z,22.83
2017-09-19T23:11:55.898Z,23.70
2017-09-19T23:14:24.286Z,24.83
2017-09-19T23:16:52.576Z,20.43
2017-09-19T23:19:20.887Z,23.70
2017-09-19T23:21:49.678Z,25.60
2017-09-19T23:24:17.975Z,26.97
2017-09-19T23:26:47.020Z,26.50
2017-09-19T23:29:16.252Z,23.73
2017-09-19T23:31:44.566Z,24.77
2017-09-19T23:34:14.304Z,27.03
2017-09-19T23:36:43.367Z,25.73
2017-09-19T23:39:11.711Z,21.23
2017-09-19T23:41:40.011Z,25.20
2017-09-19T23:44:08.299Z,22.40
2017-09-19T23:46:38.879Z,29.50
2017-09-19T23:49:08.227Z,30.07
2017-09-19T23:51:36.663Z,27.83
2017-09-19T23:54:04.973Z,30.07
2017-09-19T23:56:33.303Z,26.33
2017-09-19T23:59:01.610Z,24.30
